sensor_id;sensor_type;location;lat;lon;timestamp;pressure;altitude;pressure_sealevel;temperature;humidity
3178;BME280;38141;42.666;23.344;2023-01-05T00:00:09;95484.94;;;7.70;100.00
3178;BME280;38141;42.666;23.344;2023-01-05T00:02:36;95485.41;;;7.59;100.00
3178;BME280;38141;42.666;23.344;2023-01-05T00:05:03;95324.41;;;6.50;100.00
3178;BME280;38141;42.666;23.344;2023-01-05T00:07:30;95475.41;;;7.72;100.00
3178;BME280;38141;42.666;23.344;2023-01-05T00:09:57;95380.84;;;7.18;100.00
3178;BME280;38141;42.666;23.344;2023-01-05T00:12:24;95488.81;;;7.56;100.00
3178;BME280;38141;42.666;23.344;2023-01-05T00:15:10;95447.16;;;7.38;100.00
3178;BME280;38141;42.666;23.344;2023-01-05T00:17:54;95478.13;;;7.60;100.00
3178;BME280;38141;42.666;23.344;2023-01-05T00:20:38;95385.13;;;7.19;100.00
3178;BME280;38141;42.666;23.344;2023-01-05T00:23:23;95416.84;;;7.41;100.00
3178;BME280;38141;42.666;23.344;2023-01-05T00:25:51;95373.94;;;7.33;100.00
3178;BME280;38141;42.666;23.344;2023-01-05T00:28:20;95519.22;;;8.00;100.00
3178;BME280;38141;42.666;23.344;2023-01-05T00:30:51;95428.03;;;7.71;100.00
3178;BME280;38141;42.666;23.344;2023-01-05T00:33:18;95447.09;;;7.94;100.00
3178;BME280;38141;42.666;23.344;2023-01-05T00:35:45;95242.91;;;6.74;100.00
3178;BME280;38141;42.666;23.344;2023-01-05T00:38:11;95274.56;;;7.08;100.00
3178;BME280;38141;42.666;23.344;2023-01-05T00:40:38;95482.47;;;8.08;100.00
3178;BME280;38141;42.666;23.344;2023-01-05T00:43:05;95346.38;;;7.36;100.00
3178;BME280;38141;42.666;23.344;2023-01-05T00:45:32;95454.03;;;7.95;100.00
3178;BME280;38141;42.666;23.344;2023-01-05T00:48:00;95458.13;;;8.04;100.00
3178;BME280;38141;42.666;23.344;2023-01-05T00:50:27;95425.97;;;7.80;100.00
3178;BME280;38141;42.666;23.344;2023-01-05T00:52:54;95434.31;;;7.91;100.00
3178;BME280;38141;42.666;23.344;2023-01-05T00:55:20;95388.94;;;7.77;100.00
3178;BME280;38141;42.666;23.344;2023-01-05T00:57:47;95446.16;;;8.33;100.00
3178;BME280;38141;42.666;23.344;2023-01-05T01:00:15;95437.69;;;8.19;100.00
3178;BME280;38141;42.666;23.344;2023-01-05T01:02:43;95440.84;;;8.21;100.00
3178;BME280;38141;42.666;23.344;2023-01-05T01:05:12;95420.84;;;8.38;100.00
3178;BME280;38141;42.666;23.344;2023-01-05T01:07:38;95399.13;;;8.15;100.00
3178;BME280;38141;42.666;23.344;2023-01-05T01:10:07;95329.72;;;7.62;100.00
3178;BME280;38141;42.666;23.344;2023-01-05T01:12:34;95396.09;;;7.85;100.00
3178;BME280;38141;42.666;23.344;2023-01-05T01:15:01;95357.13;;;7.51;100.00
3178;BME280;38141;42.666;23.344;2023-01-05T01:17:28;95447.88;;;8.41;100.00
3178;BME280;38141;42.666;23.344;2023-01-05T01:19:56;95414.25;;;8.35;100.00
3178;BME280;38141;42.666;23.344;2023-01-05T01:22:24;95425.63;;;8.29;100.00
3178;BME280;38141;42.666;23.344;2023-01-05T01:24:51;95220.19;;;6.87;100.00
3178;BME280;38141;42.666;23.344;2023-01-05T01:27:18;95432.50;;;8.42;100.00
3178;BME280;38141;42.666;23.344;2023-01-05T01:29:45;95436.13;;;8.49;100.00
3178;BME280;38141;42.666;23.344;2023-01-05T01:32:11;95398.41;;;8.18;100.00
3178;BME280;38141;42.666;23.344;2023-01-05T01:34:38;95359.06;;;7.82;100.00
3178;BME280;38141;42.666;23.344;2023-01-05T01:37:05;95369.91;;;8.01;100.00
3178;BME280;38141;42.666;23.344;2023-01-05T01:39:33;95428.78;;;8.31;100.00
3178;BME280;38141;42.666;23.344;2023-01-05T01:42:00;95263.28;;;7.34;100.00
3178;BME280;38141;42.666;23.344;2023-01-05T01:44:51;95394.50;;;8.16;100.00
3178;BME280;38141;42.666;23.344;2023-01-05T01:47:24;95387.56;;;7.99;100.00
3178;BME280;38141;42.666;23.344;2023-01-05T01:49:54;95397.13;;;8.12;100.00
3178;BME280;38141;42.666;23.344;2023-01-05T01:52:25;95223.31;;;6.89;100.00
3178;BME280;38141;42.666;23.344;2023-01-05T01:54:55;95342.72;;;7.91;100.00
3178;BME280;38141;42.666;23.344;2023-01-05T01:57:23;95300.63;;;7.36;100.00
3178;BME280;38141;42.666;23.344;2023-01-05T01:59:52;95337.00;;;7.77;100.00
3178;BME280;38141;42.666;23.344;2023-01-05T02:02:20;95300.34;;;7.56;100.00
3178;BME280;38141;42.666;23.344;2023-01-05T02:04:49;95199.13;;;6.89;100.00
3178;BME280;38141;42.666;23.344;2023-01-05T02:07:18;95253.22;;;7.31;100.00
3178;BME280;38141;42.666;23.344;2023-01-05T02:09:45;95265.19;;;7.34;100.00
3178;BME280;38141;42.666;23.344;2023-01-05T02:12:25;95370.78;;;8.05;100.00
3178;BME280;38141;42.666;23.344;2023-01-05T02:15:05;95361.03;;;8.01;100.00
3178;BME280;38141;42.666;23.344;2023-01-05T02:17:46;95227.94;;;7.36;100.00
3178;BME280;38141;42.666;23.344;2023-01-05T02:20:39;95323.25;;;7.97;100.00
3178;BME280;38141;42.666;23.344;2023-01-05T02:32:11;95232.31;;;7.75;100.00
3178;BME280;38141;42.666;23.344;2023-01-05T02:34:43;95284.47;;;8.02;100.00
3178;BME280;38141;42.666;23.344;2023-01-05T02:37:15;95167.78;;;7.28;100.00
3178;BME280;38141;42.666;23.344;2023-01-05T02:39:48;95315.81;;;8.26;100.00
3178;BME280;38141;42.666;23.344;2023-01-05T02:42:19;95359.34;;;8.28;100.00
3178;BME280;38141;42.666;23.344;2023-01-05T02:44:47;95291.97;;;7.77;100.00
3178;BME280;38141;42.666;23.344;2023-01-05T02:47:38;95338.25;;;8.14;100.00
3178;BME280;38141;42.666;23.344;2023-01-05T02:50:09;95291.97;;;7.77;100.00
3178;BME280;38141;42.666;23.344;2023-01-05T02:52:41;95237.06;;;7.31;100.00
3178;BME280;38141;42.666;23.344;2023-01-05T02:55:17;95220.47;;;7.45;100.00
3178;BME280;38141;42.666;23.344;2023-01-05T02:57:48;95189.81;;;7.18;100.00
3178;BME280;38141;42.666;23.344;2023-01-05T03:00:20;95165.03;;;6.93;100.00
3178;BME280;38141;42.666;23.344;2023-01-05T03:02:52;95169.28;;;7.26;100.00
3178;BME280;38141;42.666;23.344;2023-01-05T03:05:22;95282.41;;;7.95;100.00
3178;BME280;38141;42.666;23.344;2023-01-05T03:07:52;95211.03;;;7.35;100.00
3178;BME280;38141;42.666;23.344;2023-01-05T03:10:34;95243.72;;;7.37;100.00
3178;BME280;38141;42.666;23.344;2023-01-05T03:13:20;95147.69;;;7.06;100.00
3178;BME280;38141;42.666;23.344;2023-01-05T03:16:06;95267.19;;;7.52;100.00
3178;BME280;38141;42.666;23.344;2023-01-05T03:18:37;95295.25;;;8.02;100.00
3178;BME280;38141;42.666;23.344;2023-01-05T03:21:19;95275.69;;;8.05;100.00
3178;BME280;38141;42.666;23.344;2023-01-05T03:23:47;95183.66;;;7.49;100.00
3178;BME280;38141;42.666;23.344;2023-01-05T03:26:31;95277.75;;;7.77;100.00
3178;BME280;38141;42.666;23.344;2023-01-05T03:29:16;95281.06;;;7.70;100.00
3178;BME280;38141;42.666;23.344;2023-01-05T03:32:04;95216.81;;;7.37;100.00
3178;BME280;38141;42.666;23.344;2023-01-05T03:34:53;95274.78;;;7.82;100.00
3178;BME280;38141;42.666;23.344;2023-01-05T03:37:43;95234.56;;;7.89;100.00
3178;BME280;38141;42.666;23.344;2023-01-05T03:40:16;95242.47;;;7.82;100.00
3178;BME280;38141;42.666;23.344;2023-01-05T03:42:46;95275.63;;;8.01;100.00
3178;BME280;38141;42.666;23.344;2023-01-05T03:45:14;95267.25;;;8.07;100.00
3178;BME280;38141;42.666;23.344;2023-01-05T03:47:41;95133.03;;;6.88;100.00
3178;BME280;38141;42.666;23.344;2023-01-05T03:50:10;95235.13;;;7.63;100.00
3178;BME280;38141;42.666;23.344;2023-01-05T03:52:37;95060.19;;;6.31;100.00
3178;BME280;38141;42.666;23.344;2023-01-05T03:55:07;95209.19;;;7.39;100.00
3178;BME280;38141;42.666;23.344;2023-01-05T03:57:34;95222.19;;;7.53;100.00
3178;BME280;38141;42.666;23.344;2023-01-05T04:00:01;95171.78;;;7.34;100.00
3178;BME280;38141;42.666;23.344;2023-01-05T04:02:28;95227.53;;;7.69;100.00
3178;BME280;38141;42.666;23.344;2023-01-05T04:04:55;95268.59;;;7.97;100.00
3178;BME280;38141;42.666;23.344;2023-01-05T04:07:23;95260.50;;;7.97;100.00
3178;BME280;38141;42.666;23.344;2023-01-05T04:09:50;95238.09;;;7.93;100.00
3178;BME280;38141;42.666;23.344;2023-01-05T04:12:16;95224.56;;;7.89;100.00
3178;BME280;38141;42.666;23.344;2023-01-05T04:14:43;95192.47;;;7.65;100.00
3178;BME280;38141;42.666;23.344;2023-01-05T04:17:10;95251.66;;;7.96;100.00
3178;BME280;38141;42.666;23.344;2023-01-05T04:19:39;95254.59;;;8.07;100.00
3178;BME280;38141;42.666;23.344;2023-01-05T04:22:06;95246.13;;;8.09;100.00
3178;BME280;38141;42.666;23.344;2023-01-05T04:24:34;95230.59;;;8.02;100.00
3178;BME280;38141;42.666;23.344;2023-01-05T04:27:01;95247.50;;;8.18;100.00
3178;BME280;38141;42.666;23.344;2023-01-05T04:29:28;95241.03;;;8.23;100.00
3178;BME280;38141;42.666;23.344;2023-01-05T04:31:57;95119.63;;;7.23;100.00
3178;BME280;38141;42.666;23.344;2023-01-05T04:34:24;95143.22;;;7.14;100.00
3178;BME280;38141;42.666;23.344;2023-01-05T04:36:51;95221.03;;;7.70;100.00
3178;BME280;38141;42.666;23.344;2023-01-05T04:39:17;95180.78;;;7.42;100.00
3178;BME280;38141;42.666;23.344;2023-01-05T04:41:48;95154.19;;;7.21;100.00
3178;BME280;38141;42.666;23.344;2023-01-05T04:44:15;95097.31;;;6.72;100.00
3178;BME280;38141;42.666;23.344;2023-01-05T04:46:42;95245.97;;;7.51;100.00
3178;BME280;38141;42.666;23.344;2023-01-05T04:49:18;95018.56;;;5.93;100.00
3178;BME280;38141;42.666;23.344;2023-01-05T04:51:45;95109.25;;;6.43;100.00
3178;BME280;38141;42.666;23.344;2023-01-05T04:54:12;95084.16;;;6.23;100.00
3178;BME280;38141;42.666;23.344;2023-01-05T04:56:39;95299.09;;;7.23;100.00
3178;BME280;38141;42.666;23.344;2023-01-05T04:59:07;95146.53;;;6.45;100.00
3178;BME280;38141;42.666;23.344;2023-01-05T05:01:34;95064.78;;;5.87;100.00
3178;BME280;38141;42.666;23.344;2023-01-05T05:04:04;95160.84;;;6.21;100.00
3178;BME280;38141;42.666;23.344;2023-01-05T05:06:41;95200.22;;;6.72;100.00
3178;BME280;38141;42.666;23.344;2023-01-05T05:09:15;95263.09;;;7.11;100.00
3178;BME280;38141;42.666;23.344;2023-01-05T05:11:53;95038.28;;;5.73;100.00
3178;BME280;38141;42.666;23.344;2023-01-05T05:14:33;95294.75;;;7.18;100.00
3178;BME280;38141;42.666;23.344;2023-01-05T05:17:04;95056.06;;;5.77;100.00
3178;BME280;38141;42.666;23.344;2023-01-05T05:19:54;95097.19;;;5.94;100.00
3178;BME280;38141;42.666;23.344;2023-01-05T05:22:49;95138.56;;;6.48;100.00
3178;BME280;38141;42.666;23.344;2023-01-05T05:25:27;95164.16;;;6.58;100.00
3178;BME280;38141;42.666;23.344;2023-01-05T05:27:55;95121.00;;;5.95;100.00
3178;BME280;38141;42.666;23.344;2023-01-05T05:33:30;95283.19;;;7.02;100.00
3178;BME280;38141;42.666;23.344;2023-01-05T05:35:57;95258.66;;;7.03;100.00
3178;BME280;38141;42.666;23.344;2023-01-05T05:38:24;95195.16;;;6.40;100.00
3178;BME280;38141;42.666;23.344;2023-01-05T05:40:51;95093.28;;;5.91;100.00
3178;BME280;38141;42.666;23.344;2023-01-05T05:43:20;95164.59;;;6.32;100.00
3178;BME280;38141;42.666;23.344;2023-01-05T05:45:47;95248.38;;;6.78;100.00
3178;BME280;38141;42.666;23.344;2023-01-05T05:48:14;95108.97;;;5.89;100.00
3178;BME280;38141;42.666;23.344;2023-01-05T05:50:44;95195.41;;;6.50;100.00
3178;BME280;38141;42.666;23.344;2023-01-05T05:53:11;95211.59;;;6.38;100.00
3178;BME280;38141;42.666;23.344;2023-01-05T05:55:38;95047.91;;;5.46;100.00
3178;BME280;38141;42.666;23.344;2023-01-05T05:58:05;95231.09;;;6.63;100.00
3178;BME280;38141;42.666;23.344;2023-01-05T06:00:33;95206.69;;;6.40;100.00
3178;BME280;38141;42.666;23.344;2023-01-05T06:03:03;95088.78;;;5.55;100.00
3178;BME280;38141;42.666;23.344;2023-01-05T06:05:30;95158.09;;;6.05;100.00
3178;BME280;38141;42.666;23.344;2023-01-05T06:07:58;95092.47;;;5.63;100.00
3178;BME280;38141;42.666;23.344;2023-01-05T06:10:25;95218.22;;;6.56;100.00
3178;BME280;38141;42.666;23.344;2023-01-05T06:12:52;95102.03;;;5.76;100.00
3178;BME280;38141;42.666;23.344;2023-01-05T06:15:19;94972.22;;;4.85;100.00
3178;BME280;38141;42.666;23.344;2023-01-05T06:17:49;95085.56;;;5.50;100.00
3178;BME280;38141;42.666;23.344;2023-01-05T06:20:16;95190.97;;;6.42;100.00
3178;BME280;38141;42.666;23.344;2023-01-05T06:22:43;95076.03;;;5.64;100.00
3178;BME280;38141;42.666;23.344;2023-01-05T06:25:11;95179.16;;;6.75;100.00
3178;BME280;38141;42.666;23.344;2023-01-05T06:27:39;95204.75;;;7.00;100.00
3178;BME280;38141;42.666;23.344;2023-01-05T06:30:07;95199.31;;;7.12;100.00
3178;BME280;38141;42.666;23.344;2023-01-05T06:32:34;95188.09;;;7.26;100.00
3178;BME280;38141;42.666;23.344;2023-01-05T06:35:01;95004.09;;;5.98;100.00
3178;BME280;38141;42.666;23.344;2023-01-05T06:40:04;95044.16;;;7.00;100.00
3178;BME280;38141;42.666;23.344;2023-01-05T06:42:32;95064.28;;;7.60;100.00
3178;BME280;38141;42.666;23.344;2023-01-05T06:44:59;95069.81;;;8.06;100.00
3178;BME280;38141;42.666;23.344;2023-01-05T06:47:26;95194.03;;;9.50;100.00
3178;BME280;38141;42.666;23.344;2023-01-05T06:49:53;95116.03;;;8.69;100.00
3178;BME280;38141;42.666;23.344;2023-01-05T06:52:20;95181.38;;;9.80;100.00
3178;BME280;38141;42.666;23.344;2023-01-05T06:54:48;95213.78;;;10.06;100.00
3178;BME280;38141;42.666;23.344;2023-01-05T06:57:26;95199.88;;;10.67;100.00
3178;BME280;38141;42.666;23.344;2023-01-05T06:59:54;95196.31;;;10.93;100.00
3178;BME280;38141;42.666;23.344;2023-01-05T07:02:21;95161.25;;;11.07;98.92
3178;BME280;38141;42.666;23.344;2023-01-05T07:04:50;95067.09;;;10.43;94.57
3178;BME280;38141;42.666;23.344;2023-01-05T07:07:16;95124.34;;;10.89;91.76
3178;BME280;38141;42.666;23.344;2023-01-05T07:09:43;95138.50;;;11.19;90.97
3178;BME280;38141;42.666;23.344;2023-01-05T07:12:13;95197.41;;;11.29;90.90
3178;BME280;38141;42.666;23.344;2023-01-05T07:14:40;95099.84;;;10.34;93.63
3178;BME280;38141;42.666;23.344;2023-01-05T07:17:08;95192.88;;;11.00;96.47
3178;BME280;38141;42.666;23.344;2023-01-05T07:19:38;95158.06;;;10.98;97.75
3178;BME280;38141;42.666;23.344;2023-01-05T07:22:07;95071.13;;;10.63;99.52
3178;BME280;38141;42.666;23.344;2023-01-05T07:24:34;95048.75;;;10.25;100.00
3178;BME280;38141;42.666;23.344;2023-01-05T07:27:06;95094.19;;;10.13;100.00
3178;BME280;38141;42.666;23.344;2023-01-05T07:29:33;94991.88;;;9.18;100.00
3178;BME280;38141;42.666;23.344;2023-01-05T07:32:00;95201.13;;;10.74;100.00
3178;BME280;38141;42.666;23.344;2023-01-05T07:34:28;95093.50;;;9.60;100.00
3178;BME280;38141;42.666;23.344;2023-01-05T07:36:55;95169.56;;;10.18;100.00
3178;BME280;38141;42.666;23.344;2023-01-05T07:39:22;95162.78;;;10.31;100.00
3178;BME280;38141;42.666;23.344;2023-01-05T07:41:51;95141.59;;;10.40;100.00
3178;BME280;38141;42.666;23.344;2023-01-05T07:44:19;95190.53;;;9.98;100.00
3178;BME280;38141;42.666;23.344;2023-01-05T07:46:59;95027.22;;;9.36;100.00
3178;BME280;38141;42.666;23.344;2023-01-05T07:49:30;95141.53;;;10.33;100.00
3178;BME280;38141;42.666;23.344;2023-01-05T07:51:57;95131.75;;;11.46;100.00
3178;BME280;38141;42.666;23.344;2023-01-05T07:54:24;94922.81;;;10.76;95.19
3178;BME280;38141;42.666;23.344;2023-01-05T07:56:58;95118.03;;;13.09;83.41
3178;BME280;38141;42.666;23.344;2023-01-05T07:59:25;95141.38;;;13.49;78.43
3178;BME280;38141;42.666;23.344;2023-01-05T08:02:09;95160.75;;;13.65;76.35
3178;BME280;38141;42.666;23.344;2023-01-05T08:11:13;95202.59;;;12.89;86.53
3178;BME280;38141;42.666;23.344;2023-01-05T08:13:41;95114.72;;;12.15;85.46
3178;BME280;38141;42.666;23.344;2023-01-05T08:16:41;94940.72;;;10.98;85.96
3178;BME280;38141;42.666;23.344;2023-01-05T08:19:09;95076.16;;;11.70;87.73
3178;BME280;38141;42.666;23.344;2023-01-05T08:21:42;95122.00;;;11.93;88.40
3178;BME280;38141;42.666;23.344;2023-01-05T08:24:08;95153.66;;;12.68;85.65
3178;BME280;38141;42.666;23.344;2023-01-05T08:26:37;95160.31;;;14.02;73.58
3178;BME280;38141;42.666;23.344;2023-01-05T08:29:04;95162.59;;;15.08;65.18
3178;BME280;38141;42.666;23.344;2023-01-05T08:31:31;95162.28;;;15.95;61.86
3178;BME280;38141;42.666;23.344;2023-01-05T08:34:08;95038.97;;;16.37;56.70
3178;BME280;38141;42.666;23.344;2023-01-05T08:36:35;95108.50;;;17.67;52.48
3178;BME280;38141;42.666;23.344;2023-01-05T08:41:38;95105.19;;;18.58;48.64
3178;BME280;38141;42.666;23.344;2023-01-05T08:46:41;95078.91;;;19.77;46.51
3178;BME280;38141;42.666;23.344;2023-01-05T08:51:51;95176.69;;;21.19;43.31
3178;BME280;38141;42.666;23.344;2023-01-05T08:56:55;95006.13;;;21.75;41.35
3178;BME280;38141;42.666;23.344;2023-01-05T08:59:22;95069.44;;;22.66;39.40
3178;BME280;38141;42.666;23.344;2023-01-05T09:01:51;95084.59;;;22.39;39.41
3178;BME280;38141;42.666;23.344;2023-01-05T09:04:18;95130.06;;;22.56;40.12
3178;BME280;38141;42.666;23.344;2023-01-05T09:06:45;95075.22;;;22.15;40.26
3178;BME280;38141;42.666;23.344;2023-01-05T09:09:11;95121.44;;;23.69;38.87
3178;BME280;38141;42.666;23.344;2023-01-05T09:11:38;95005.41;;;23.87;36.19
3178;BME280;38141;42.666;23.344;2023-01-05T09:14:11;95061.72;;;24.53;36.11
3178;BME280;38141;42.666;23.344;2023-01-05T09:16:39;95004.75;;;22.36;37.50
3178;BME280;38141;42.666;23.344;2023-01-05T09:19:06;95045.78;;;22.86;38.31
3178;BME280;38141;42.666;23.344;2023-01-05T09:21:34;95058.53;;;23.91;35.82
3178;BME280;38141;42.666;23.344;2023-01-05T09:24:04;95071.72;;;23.29;36.75
3178;BME280;38141;42.666;23.344;2023-01-05T09:26:32;95035.47;;;23.94;36.61
3178;BME280;38141;42.666;23.344;2023-01-05T09:29:00;95026.59;;;21.40;39.56
3178;BME280;38141;42.666;23.344;2023-01-05T09:32:14;95039.88;;;23.46;36.40
3178;BME280;38141;42.666;23.344;2023-01-05T09:34:41;95001.69;;;22.34;38.15
3178;BME280;38141;42.666;23.344;2023-01-05T09:40:47;94979.53;;;22.15;38.44
3178;BME280;38141;42.666;23.344;2023-01-05T09:43:21;95016.97;;;21.91;38.98
3178;BME280;38141;42.666;23.344;2023-01-05T09:45:51;95039.81;;;20.44;41.04
3178;BME280;38141;42.666;23.344;2023-01-05T09:48:37;94871.91;;;19.46;41.03
3178;BME280;38141;42.666;23.344;2023-01-05T09:51:21;94990.78;;;20.01;41.76
3178;BME280;38141;42.666;23.344;2023-01-05T09:53:52;94948.22;;;19.06;41.96
3178;BME280;38141;42.666;23.344;2023-01-05T09:56:26;94937.22;;;20.21;41.21
3178;BME280;38141;42.666;23.344;2023-01-05T09:59:03;94840.91;;;19.87;40.57
3178;BME280;38141;42.666;23.344;2023-01-05T10:01:34;94858.66;;;20.83;39.01
3178;BME280;38141;42.666;23.344;2023-01-05T10:11:56;94861.69;;;20.64;39.44
3178;BME280;38141;42.666;23.344;2023-01-05T10:14:44;94897.56;;;20.48;39.49
3178;BME280;38141;42.666;23.344;2023-01-05T10:17:28;94791.59;;;19.58;40.37
3178;BME280;38141;42.666;23.344;2023-01-05T10:19:57;94979.13;;;19.23;42.74
3178;BME280;38141;42.666;23.344;2023-01-05T10:22:35;94903.72;;;18.17;44.14
3178;BME280;38141;42.666;23.344;2023-01-05T10:25:13;94964.41;;;19.00;43.66
3178;BME280;38141;42.666;23.344;2023-01-05T10:27:50;94843.03;;;18.51;42.67
3178;BME280;38141;42.666;23.344;2023-01-05T10:30:22;94846.41;;;19.04;42.73
3178;BME280;38141;42.666;23.344;2023-01-05T10:32:57;94920.13;;;18.53;43.72
3178;BME280;38141;42.666;23.344;2023-01-05T10:35:51;94947.81;;;19.36;43.37
3178;BME280;38141;42.666;23.344;2023-01-05T10:38:34;94861.38;;;19.44;42.20
3178;BME280;38141;42.666;23.344;2023-01-05T10:41:09;94944.19;;;19.97;42.03
3178;BME280;38141;42.666;23.344;2023-01-05T10:43:57;94896.66;;;20.25;40.78
3178;BME280;38141;42.666;23.344;2023-01-05T10:46:29;94902.25;;;20.72;40.41
3178;BME280;38141;42.666;23.344;2023-01-05T10:51:32;94827.50;;;19.76;41.25
3178;BME280;38141;42.666;23.344;2023-01-05T10:54:00;94807.84;;;19.78;40.90
3178;BME280;38141;42.666;23.344;2023-01-05T10:56:29;94901.03;;;19.56;42.17
3178;BME280;38141;42.666;23.344;2023-01-05T11:04:22;94713.00;;;17.62;43.66
3178;BME280;38141;42.666;23.344;2023-01-05T11:06:50;94806.44;;;19.32;41.89
3178;BME280;38141;42.666;23.344;2023-01-05T11:09:21;94755.59;;;19.15;41.98
3178;BME280;38141;42.666;23.344;2023-01-05T11:11:56;94790.25;;;19.08;41.81
3178;BME280;38141;42.666;23.344;2023-01-05T11:14:24;94786.22;;;19.80;41.03
3178;BME280;38141;42.666;23.344;2023-01-05T11:43:17;94727.69;;;17.68;44.68
3178;BME280;38141;42.666;23.344;2023-01-05T11:48:36;94781.84;;;18.87;42.47
3178;BME280;38141;42.666;23.344;2023-01-05T11:51:32;94838.00;;;19.11;42.94
3178;BME280;38141;42.666;23.344;2023-01-05T11:57:15;94747.13;;;18.67;43.12
3178;BME280;38141;42.666;23.344;2023-01-05T11:59:46;94737.25;;;18.57;42.28
3178;BME280;38141;42.666;23.344;2023-01-05T12:03:02;94783.50;;;18.84;42.59
3178;BME280;38141;42.666;23.344;2023-01-05T12:16:39;94827.88;;;19.08;43.53
3178;BME280;38141;42.666;23.344;2023-01-05T12:19:31;94707.16;;;18.25;42.89
3178;BME280;38141;42.666;23.344;2023-01-05T12:22:23;94707.94;;;18.83;41.92
3178;BME280;38141;42.666;23.344;2023-01-05T12:25:04;94810.84;;;19.83;41.92
3178;BME280;38141;42.666;23.344;2023-01-05T12:28:05;94688.34;;;18.97;41.05
3178;BME280;38141;42.666;23.344;2023-01-05T12:30:39;94805.66;;;19.31;41.91
3178;BME280;38141;42.666;23.344;2023-01-05T12:33:30;94802.75;;;19.38;42.47
3178;BME280;38141;42.666;23.344;2023-01-05T12:36:20;94751.78;;;18.83;42.81
3178;BME280;38141;42.666;23.344;2023-01-05T12:41:52;94666.41;;;18.56;42.57
3178;BME280;38141;42.666;23.344;2023-01-05T12:50:25;94615.81;;;16.34;45.25
3178;BME280;38141;42.666;23.344;2023-01-05T12:52:58;94620.72;;;16.62;45.32
3178;BME280;38141;42.666;23.344;2023-01-05T12:55:30;94743.19;;;17.03;45.95
3178;BME280;38141;42.666;23.344;2023-01-05T12:58:01;94749.00;;;17.05;46.37
3178;BME280;38141;42.666;23.344;2023-01-05T13:00:33;94760.00;;;17.21;46.20
3178;BME280;38141;42.666;23.344;2023-01-05T13:03:03;94784.66;;;17.18;46.48
3178;BME280;38141;42.666;23.344;2023-01-05T13:05:38;94735.31;;;16.46;47.11
3178;BME280;38141;42.666;23.344;2023-01-05T13:08:12;94753.28;;;16.24;48.25
3178;BME280;38141;42.666;23.344;2023-01-05T13:10:44;94800.31;;;16.55;48.88
3178;BME280;38141;42.666;23.344;2023-01-05T13:13:16;94804.38;;;16.23;48.90
3178;BME280;38141;42.666;23.344;2023-01-05T13:15:53;94670.88;;;15.86;48.75
3178;BME280;38141;42.666;23.344;2023-01-05T13:18:23;94679.44;;;15.88;48.40
3178;BME280;38141;42.666;23.344;2023-01-05T13:20:54;94675.38;;;16.39;47.90
3178;BME280;38141;42.666;23.344;2023-01-05T13:23:25;94783.06;;;16.81;48.26
3178;BME280;38141;42.666;23.344;2023-01-05T13:25:55;94696.50;;;16.15;47.89
3178;BME280;38141;42.666;23.344;2023-01-05T13:28:24;94723.31;;;16.83;47.25
3178;BME280;38141;42.666;23.344;2023-01-05T13:37:26;94783.59;;;17.31;47.74
3178;BME280;38141;42.666;23.344;2023-01-05T13:40:06;94666.13;;;16.53;47.63
3178;BME280;38141;42.666;23.344;2023-01-05T13:42:53;94672.28;;;16.76;47.32
3178;BME280;38141;42.666;23.344;2023-01-05T13:46:01;94728.41;;;17.37;46.86
3178;BME280;38141;42.666;23.344;2023-01-05T13:51:41;94677.47;;;16.90;47.24
3178;BME280;38141;42.666;23.344;2023-01-05T13:54:15;94634.34;;;16.42;47.48
3178;BME280;38141;42.666;23.344;2023-01-05T13:56:43;94703.84;;;16.61;48.03
3178;BME280;38141;42.666;23.344;2023-01-05T13:59:22;94649.31;;;16.54;47.81
3178;BME280;38141;42.666;23.344;2023-01-05T14:01:50;94754.84;;;16.44;49.21
3178;BME280;38141;42.666;23.344;2023-01-05T14:04:18;94751.19;;;16.31;49.87
3178;BME280;38141;42.666;23.344;2023-01-05T14:06:49;94715.94;;;16.17;50.43
3178;BME280;38141;42.666;23.344;2023-01-05T14:18:51;94618.59;;;15.44;50.13
3178;BME280;38141;42.666;23.344;2023-01-05T14:21:57;94704.22;;;15.97;50.03
3178;BME280;38141;42.666;23.344;2023-01-05T14:27:05;94554.69;;;14.49;50.48
3178;BME280;38141;42.666;23.344;2023-01-05T14:30:00;94750.66;;;15.70;51.44
3178;BME280;38141;42.666;23.344;2023-01-05T14:32:30;94712.63;;;15.33;51.94
3178;BME280;38141;42.666;23.344;2023-01-05T14:35:05;94663.81;;;14.88;51.92
3178;BME280;38141;42.666;23.344;2023-01-05T14:37:36;94551.84;;;13.61;53.41
3178;BME280;38141;42.666;23.344;2023-01-05T14:40:37;94690.41;;;14.09;54.22
3178;BME280;38141;42.666;23.344;2023-01-05T14:45:39;94765.59;;;14.71;54.18
3178;BME280;38141;42.666;23.344;2023-01-05T14:48:25;94661.84;;;13.46;55.51
3178;BME280;38141;42.666;23.344;2023-01-05T14:53:40;94640.06;;;13.02;57.79
3178;BME280;38141;42.666;23.344;2023-01-05T14:56:21;94570.97;;;13.06;57.16
3178;BME280;38141;42.666;23.344;2023-01-05T14:58:57;94619.69;;;13.27;56.47
3178;BME280;38141;42.666;23.344;2023-01-05T15:01:34;94618.22;;;13.19;57.09
3178;BME280;38141;42.666;23.344;2023-01-05T15:04:06;94647.63;;;13.31;58.57
3178;BME280;38141;42.666;23.344;2023-01-05T15:06:44;94628.28;;;12.67;58.34
3178;BME280;38141;42.666;23.344;2023-01-05T15:09:37;94708.97;;;13.29;59.90
3178;BME280;38141;42.666;23.344;2023-01-05T15:15:40;94593.22;;;12.25;61.73
3178;BME280;38141;42.666;23.344;2023-01-05T15:24:15;94607.69;;;11.86;62.88
3178;BME280;38141;42.666;23.344;2023-01-05T15:27:00;94642.94;;;11.83;65.87
3178;BME280;38141;42.666;23.344;2023-01-05T15:29:43;94593.84;;;11.49;67.04
3178;BME280;38141;42.666;23.344;2023-01-05T15:32:16;94735.44;;;12.06;69.31
3178;BME280;38141;42.666;23.344;2023-01-05T15:39:57;94629.81;;;10.82;74.43
3178;BME280;38141;42.666;23.344;2023-01-05T15:42:37;94687.88;;;11.17;76.40
3178;BME280;38141;42.666;23.344;2023-01-05T15:47:42;94833.06;;;11.88;76.02
3178;BME280;38141;42.666;23.344;2023-01-05T15:50:17;94614.28;;;10.44;76.85
3178;BME280;38141;42.666;23.344;2023-01-05T15:55:18;94779.97;;;11.48;75.38
3178;BME280;38141;42.666;23.344;2023-01-05T15:57:52;94776.84;;;11.50;74.25